• Join FlightAware (Why Join?)
  • Login
  • US Flag 
06:38PM EDT


 

Airport Tracker/Info


-or-


 

Live Flight TrackerFlight Track Log ✈ FFT426 ✈ 05-May-2012 ✈ KDEN - KATL

Flight Track Log - Related Links

Times and Time Zones

All times are in EDT time to prevent confusion due to time zone crossing. See the FFT426 flight status page for this flight to view local times or setup timezone preferences in your user account.

Time Position Orientation Groundspeed Altitude Reporting Facility
EDT Latitude Longitude Course Direction KTS MPH feet Rate Location/Type
09:04PM 39.8667 -104.5833 105° East 191 220 6,900  Level Denver TRACON
09:05PM 39.8500 -104.5000 102° East 248 285 8,100 1,680 Climbing Denver TRACON
09:06PM 39.8333 -104.4000 100° East 285 328 10,500 2,160 Climbing Denver TRACON
09:07PM 39.8167 -104.2833 100° East 315 362 12,700 2,280 Climbing Denver TRACON
09:08PM 39.8000 -104.1667 99° East 330 380 15,100 2,160 Climbing Denver TRACON
09:09PM 39.7875 -104.0656 100° East 341 392 16,800 2,040 Climbing Denver Center
09:10PM 39.7725 -103.9525 101° East 354 407 18,900 1,800 Climbing Denver Center
09:11PM 39.7531 -103.8208 97° East 360 414 20,400 1,440 Climbing Denver Center
09:12PM 39.7392 -103.6756 97° East 387 445 21,800 1,500 Climbing Denver Center
09:13PM 39.7247 -103.5250 96° East 414 476 23,500 1,800 Climbing Denver Center
09:14PM 39.7125 -103.3689 97° East 425 489 25,400 1,740 Climbing Denver Center
09:15PM 39.6975 -103.2103 106° East 425 489 27,000 1,440 Climbing Denver Center
09:16PM 39.6614 -103.0447 110° East 432 497 28,300 1,320 Climbing Denver Center
09:17PM 39.6172 -102.8906 110° East 438 504 29,700 1,260 Climbing Denver Center
09:18PM 39.5725 -102.7339 111° Southeast 443 510 30,900 1,140 Climbing Denver Center
09:19PM 39.5278 -102.5803 110° East 443 510 32,000 1,140 Climbing Denver Center
09:20PM 39.4847 -102.4239 112° Southeast 448 516 33,200 1,200 Climbing Denver Center
09:21PM 39.4353 -102.2653 111° Southeast 469 540 34,500 900 Climbing Denver Center
09:22PM 39.3947 -102.1256 110° East 464 534 35,000 480 Climbing Denver Center
09:23PM 39.3464 -101.9567 111° Southeast 459 528 35,500 780 Climbing Denver Center
09:24PM 39.3056 -101.8222 109° East 454 522 36,600 720 Climbing Denver Center
09:25PM 39.2589 -101.6483 111° Southeast 453 521 37,000 180 Climbing Denver Center
09:26PM 39.2197 -101.5144 108° East 458 527 37,000  Level Denver Center
09:27PM 39.1769 -101.3458 106° East 448 516 37,000  Level Denver Center
09:28PM 39.1428 -101.1931 106° East 449 517 37,000  Level Denver Center
09:29PM 39.1086 -101.0403 106° East 448 516 37,000  Level Denver Center
09:30PM 39.0767 -100.8983 107° East 448 516 37,000  Level Denver Center
09:32PM 39.0153 -100.6408 106° East 451 519 37,000  Level Kansas City Center
09:33PM 38.9814 -100.4883 106° East 446 513 37,100  Climbing Kansas City Center
09:34PM 38.9506 -100.3525 108° East 446 513 37,000 -60 Descending Kansas City Center
09:35PM 38.9086 -100.1836 106° East 452 520 37,000  Level Kansas City Center
09:36PM 38.8742 -100.0289 108° East 452 520 37,000  Level Kansas City Center
09:37PM 38.8353 -99.8739 107° East 452 520 37,000  Level Kansas City Center
09:38PM 38.8019 -99.7331 107° East 452 520 37,100  Climbing Kansas City Center
09:39PM 38.7614 -99.5622 108° East 452 520 37,100 -60 Level Kansas City Center
09:40PM 38.7239 -99.4133 107° East 447 514 37,000 -60 Descending Kansas City Center
09:41PM 38.6881 -99.2647 106° East 447 514 37,000  Level Kansas City Center
09:42PM 38.6525 -99.1108 108° East 447 514 37,000  Level Kansas City Center
09:43PM 38.6144 -98.9569 109° East 447 514 37,000  Level Kansas City Center
09:44PM 38.5742 -98.8058 107° East 447 514 37,000  Level Kansas City Center
09:45PM 38.5378 -98.6522 108° East 447 514 37,000  Level Kansas City Center
09:46PM 38.4992 -98.4989 108° East 447 514 37,000  Level Kansas City Center
09:47PM 38.4603 -98.3483 108° East 447 514 37,000  Level Kansas City Center
09:48PM 38.4214 -98.1925 107° East 447 514 37,000  Level Kansas City Center
09:49PM 38.3844 -98.0422 108° East 447 514 37,000  Level Kansas City Center
09:50PM 38.3450 -97.8842 110° East 453 521 37,000  Level Kansas City Center
09:51PM 38.3072 -97.7503 116° Southeast 453 521 37,000  Level Kansas City Center
09:52PM 38.2506 -97.6022 117° Southeast 453 521 37,000  Level Kansas City Center
09:53PM 38.1936 -97.4572 115° Southeast 453 521 37,000  Level Kansas City Center
09:54PM 38.1408 -97.3125 116° Southeast 453 521 37,000  Level Kansas City Center
09:55PM 38.0858 -97.1706 116° Southeast 453 521 37,000  Level Kansas City Center
09:56PM 38.0306 -97.0289 116° Southeast 453 521 37,000  Level Kansas City Center
09:57PM 37.9750 -96.8875 115° Southeast 448 516 37,000  Level Kansas City Center
09:58PM 37.9233 -96.7489 117° Southeast 448 516 37,000  Level Kansas City Center
09:59PM 37.8675 -96.6078 116° Southeast 448 516 37,000  Level Kansas City Center
10:00PM 37.8136 -96.4669 117° Southeast 448 516 37,000  Level Kansas City Center
10:01PM 37.7575 -96.3289 117° Southeast 448 516 37,000  Level Kansas City Center
10:02PM 37.7031 -96.1911 113° Southeast 443 510 37,000  Level Kansas City Center
10:03PM 37.6550 -96.0483 116° Southeast 438 504 37,000  Level Kansas City Center
10:04PM 37.5983 -95.9031 118° Southeast 444 511 37,000  Level Kansas City Center
10:05PM 37.5394 -95.7631 117° Southeast 449 517 37,100  Climbing Kansas City Center
10:06PM 37.4825 -95.6208 116° Southeast 455 524 37,000 -60 Descending Kansas City Center
10:07PM 37.4253 -95.4764 116° Southeast 455 524 37,000  Level Kansas City Center
10:08PM 37.3700 -95.3369 118° Southeast 455 524 37,000  Level Kansas City Center
10:09PM 37.3106 -95.1981 116° Southeast 455 524 37,000  Level Kansas City Center
10:10PM 37.2569 -95.0619 118° Southeast 455 524 37,000  Level Kansas City Center
10:11PM 37.1992 -94.9233 117° Southeast 450 518 37,000  Level Kansas City Center
10:12PM 37.1431 -94.7875 117° Southeast 450 518 37,000  Level Kansas City Center
10:13PM 37.0869 -94.6519 118° Southeast 445 512 37,000  Level Kansas City Center
10:14PM 37.0286 -94.5164 117° Southeast 445 512 37,000  Level Kansas City Center
10:16PM 36.9347 -94.2889 119° Southeast 436 502 37,000  Level Memphis Center
10:17PM 36.8742 -94.1511 118° Southeast 442 509 37,000  Level Memphis Center
10:18PM 36.8158 -94.0136 118° Southeast 448 516 37,000  Level Memphis Center
10:19PM 36.7553 -93.8736 116° Southeast 448 516 37,000  Level Memphis Center
10:20PM 36.7008 -93.7342 111° Southeast 453 521 37,000  Level Memphis Center
10:21PM 36.6547 -93.5847 110° East 453 521 37,000  Level Memphis Center
10:22PM 36.6125 -93.4436 107° East 447 514 37,000  Level Memphis Center
10:23PM 36.5764 -93.3000 111° Southeast 436 502 37,000  Level Memphis Center
10:24PM 36.5317 -93.1564 111° Southeast 436 502 37,000  Level Memphis Center
10:25PM 36.4869 -93.0103 111° Southeast 436 502 37,000  Level Memphis Center
10:26PM 36.4400 -92.8592 110° East 436 502 37,000  Level Memphis Center
10:27PM 36.3989 -92.7211 111° Southeast 431 496 37,000  Level Memphis Center
10:28PM 36.3556 -92.5808 110° East 436 502 37,000  Level Memphis Center
10:29PM 36.3183 -92.4536 113° Southeast 431 496 37,000  Level Memphis Center
10:30PM 36.2706 -92.3133 110° East 431 496 37,000  Level Memphis Center
10:31PM 36.2289 -92.1733 113° Southeast 431 496 37,100  Climbing Memphis Center
10:32PM 36.1767 -92.0231 111° Southeast 431 496 37,100 -60 Level Memphis Center
10:33PM 36.1328 -91.8808 111° Southeast 436 502 37,000 -60 Descending Memphis Center
10:34PM 36.0906 -91.7414 113° Southeast 436 502 37,000  Level Memphis Center
10:35PM 36.0419 -91.6019 112° Southeast 436 502 37,000  Level Memphis Center
10:36PM 35.9975 -91.4653 111° Southeast 436 502 37,000  Level Memphis Center
10:37PM 35.9547 -91.3264 111° Southeast 436 502 37,000  Level Memphis Center
10:38PM 35.9119 -91.1875 113° Southeast 436 502 37,000  Level Memphis Center
10:39PM 35.8647 -91.0511 110° East 436 502 37,000  Level Memphis Center
10:40PM 35.8239 -90.9150 113° Southeast 436 502 37,000  Level Memphis Center
10:41PM 35.7764 -90.7767 113° Southeast 436 502 37,000  Level Memphis Center
10:42PM 35.7267 -90.6333 112° Southeast 436 502 37,000  Level Memphis Center
10:43PM 35.6811 -90.4950 109° East 436 502 37,000  Level Memphis Center
10:44PM 35.6456 -90.3647 112° Southeast 436 502 37,000  Level Memphis Center
10:45PM 35.5997 -90.2242 113° Southeast 436 502 37,000  Level Memphis Center
10:46PM 35.5453 -90.0686 111° Southeast 442 509 37,000  Level Memphis Center
10:47PM 35.5008 -89.9286 113° Southeast 442 509 37,000  Level Memphis Center
10:48PM 35.4525 -89.7861 113° Southeast 447 514 37,000  Level Memphis Center
10:49PM 35.4036 -89.6464 112° Southeast 447 514 37,000  Level Memphis Center
10:50PM 35.3569 -89.5042 114° Southeast 447 514 37,000  Level Memphis Center
10:51PM 35.3081 -89.3672 113° Southeast 447 514 37,000  Level Memphis Center
10:52PM 35.2653 -89.2433 113° Southeast 442 509 37,000  Level Memphis Center
10:53PM 35.2181 -89.1067 113° Southeast 437 503 37,000  Level Memphis Center
10:54PM 35.1706 -88.9700 114° Southeast 437 503 37,000  Level Memphis Center
10:55PM 35.1211 -88.8314 114° Southeast 437 503 37,000  Level Memphis Center
10:56PM 35.0733 -88.7003 113° Southeast 437 503 37,000  Level Memphis Center
10:57PM 35.0211 -88.5492 110° East 437 503 37,000  Level Memphis Center
10:58PM 34.9817 -88.4183 110° East 432 497 37,000  Level Memphis Center
11:05PM 34.6742 -87.4296 111° Southeast  Level FlightAware Approximate
11:06PM 34.6324 -87.2974 111° Southeast  Level FlightAware Approximate
11:07PM 34.5903 -87.1654 111° Southeast  Level FlightAware Approximate
11:08PM 34.5482 -87.0335 111° Southeast  Level FlightAware Approximate
11:09PM 34.5059 -86.9017 111° Southeast  Level FlightAware Approximate
11:10PM 34.4634 -86.7701 111° Southeast  Level FlightAware Approximate
11:11PM 34.4209 -86.6386 111° Southeast  Level FlightAware Approximate
11:12PM 34.3781 -86.5073 112° Southeast  Level FlightAware Approximate
11:13PM 34.3353 -86.3761 112° Southeast  Level FlightAware Approximate
11:14PM 34.2923 -86.2450 112° Southeast  Level FlightAware Approximate
11:15PM 34.2491 -86.1140 112° Southeast  Level FlightAware Approximate
11:16PM 34.2059 -85.9832 112° Southeast  Level FlightAware Approximate
11:17PM 34.1624 -85.8525 112° Southeast  Level FlightAware Approximate
11:18PM 34.1189 -85.7220 112° Southeast  Level FlightAware Approximate
11:19PM 34.0752 -85.5916 112° Southeast  Level FlightAware Approximate
11:20PM 34.0314 -85.4613 112° Southeast  Level FlightAware Approximate
11:21PM 33.9874 -85.3311 112° Southeast  Level FlightAware Approximate
11:22PM 33.9433 -85.2011 112° Southeast  Level FlightAware Approximate
11:23PM 33.8990 -85.0713 112° Southeast  Level FlightAware Approximate
11:24PM 33.8547 -84.9415 112° Southeast  Level FlightAware Approximate
11:25PM 33.8101 -84.8119 112° Southeast  Level FlightAware Approximate
11:26PM 33.7655 -84.6824 113° Southeast  Level FlightAware Approximate
11:27PM 33.7207 -84.5531 92° East  Level FlightAware Approximate
11:28PM 33.7167 -84.4157 90° East  Level FlightAware Approximate
11:29PM 33.7167 -84.2757 90° East  Level FlightAware Approximate
11:30PM 33.7167 -84.1356 250° West  Level FlightAware Approximate
11:31PM 33.6775 -84.2675 250° West  Level FlightAware Approximate
11:32PM 33.6378 -84.3989 268° West  Level FlightAware Approximate
11:33PM 33.6326 -84.5387 87° East  Level Estimated
11:34PM 33.6378 -84.3989 268° West  Level Estimated
11:35PM 33.6326 -84.5387 87° East  Level Estimated
11:36PM 33.6378 -84.3989 268° West  Level Estimated
11:37PM 33.6326 -84.5387 90° East  Level Estimated
11:38PM 33.6333 -84.4167 290° West  Level FlightAware Approximate
11:39PM 33.6725 -84.5486 110° East  Level Estimated
11:40PM 33.6333 -84.4167 290° West  Level FlightAware Approximate
11:41PM 33.6725 -84.5486 110° East  Level Estimated
11:42PM 33.6333 -84.4167 290° West  Level FlightAware Approximate
11:43PM 33.6725 -84.5486 290° West  Level Estimated